Time;durP1;ratioP1;P1;durP2;ratioP2;P2;SDS_P1;SDS_P2;PMS_P1;PMS_P2;Temp;Humidity;BMP_temperature;BMP_pressure;BME280_temperature;BME280_humidity;BME280_pressure;Samples;Min_cycle;Max_cycle;Signal;HPM_P1;HPM_P2
2023/10/01 00:01:40;;;;;;;9.25;4.57;;;;;;;;;;4973810;28;20395;-78
2023/10/01 00:04:07;;;;;;;9.65;4.70;;;;;;;;;;4958655;28;20050;-78
2023/10/01 00:06:34;;;;;;;9.00;4.45;;;;;;;;;;4940397;28;20035;-78
2023/10/01 00:09:01;;;;;;;10.30;4.45;;;;;;;;;;4957891;28;20046;-78
2023/10/01 00:11:27;;;;;;;9.07;4.30;;;;;;;;;;4955774;28;20050;-78
2023/10/01 00:13:53;;;;;;;9.25;4.38;;;;;;;;;;4975150;28;20043;-78
2023/10/01 00:16:18;;;;;;;10.20;5.55;;;;;;;;;;4963323;28;20597;-79
2023/10/01 00:18:44;;;;;;;10.63;4.60;;;;;;;;;;4959594;28;20114;-79
2023/10/01 00:21:10;;;;;;;9.45;4.30;;;;;;;;;;4956927;28;20069;-78
2023/10/01 00:23:35;;;;;;;9.60;4.63;;;;;;;;;;4975783;28;20086;-78
2023/10/01 00:26:00;;;;;;;8.38;4.00;;;;;;;;;;4941219;28;20061;-78
2023/10/01 00:28:26;;;;;;;9.32;4.85;;;;;;;;;;4975481;28;20031;-78
2023/10/01 00:30:51;;;;;;;12.68;4.90;;;;;;;;;;4939355;28;20050;-78
2023/10/01 00:33:17;;;;;;;9.48;4.25;;;;;;;;;;4947402;28;20913;-78
2023/10/01 00:35:42;;;;;;;9.25;4.57;;;;;;;;;;4957725;28;20067;-78
2023/10/01 00:38:08;;;;;;;10.82;4.55;;;;;;;;;;4956676;28;20097;-78
2023/10/01 00:40:33;;;;;;;12.13;4.60;;;;;;;;;;4956748;28;20031;-78
2023/10/01 00:43:01;;;;;;;8.85;4.30;;;;;;;;;;4947693;28;20530;-77
2023/10/01 00:45:27;;;;;;;9.35;4.25;;;;;;;;;;4957891;28;20101;-78
2023/10/01 00:47:55;;;;;;;11.45;3.92;;;;;;;;;;4974647;28;20042;-78
2023/10/01 00:50:22;;;;;;;7.47;3.28;;;;;;;;;;4964473;28;20512;-79
2023/10/01 00:52:56;;;;;;;8.55;3.70;;;;;;;;;;4972726;28;20766;-78
2023/10/01 00:55:23;;;;;;;8.77;3.30;;;;;;;;;;4970110;28;20964;-79
2023/10/01 00:57:49;;;;;;;8.30;3.78;;;;;;;;;;4941781;28;20494;-78
2023/10/01 01:00:16;;;;;;;6.97;3.33;;;;;;;;;;4979319;28;20046;-78
2023/10/01 01:02:57;;;;;;;9.18;3.78;;;;;;;;;;4956699;28;20042;-78
2023/10/01 01:05:37;;;;;;;7.53;3.15;;;;;;;;;;4956349;28;20038;-79
2023/10/01 01:08:20;;;;;;;10.68;3.50;;;;;;;;;;4963391;28;20054;-79
2023/10/01 01:10:48;;;;;;;10.75;2.95;;;;;;;;;;4957634;28;20152;-79
2023/10/01 01:13:16;;;;;;;8.27;3.20;;;;;;;;;;4942373;28;20042;-78
2023/10/01 01:15:45;;;;;;;8.52;3.60;;;;;;;;;;4956188;28;20039;-79
2023/10/01 01:18:13;;;;;;;7.22;2.85;;;;;;;;;;4947681;28;20538;-79
2023/10/01 01:20:45;;;;;;;9.52;3.42;;;;;;;;;;4938968;28;20033;-78
2023/10/01 01:23:23;;;;;;;8.80;3.28;;;;;;;;;;4958623;28;20133;-78
2023/10/01 01:25:55;;;;;;;10.35;3.67;;;;;;;;;;4943479;28;20049;-78
2023/10/01 01:28:27;;;;;;;8.80;3.17;;;;;;;;;;4957056;28;20034;-78
2023/10/01 01:30:53;;;;;;;14.73;5.63;;;;;;;;;;4948403;28;20039;-78
2023/10/01 01:33:26;;;;;;;10.50;4.55;;;;;;;;;;4957555;28;20410;-79
2023/10/01 01:35:54;;;;;;;10.40;4.10;;;;;;;;;;4957187;28;20403;-78
2023/10/01 01:38:20;;;;;;;;;;;;;;;;;;4972613;28;20042;-78
2023/10/01 01:40:47;;;;;;;8.18;3.40;;;;;;;;;;4974997;28;19914;-78
2023/10/01 01:43:16;;;;;;;8.23;3.13;;;;;;;;;;4947688;28;20141;-78
2023/10/01 01:45:46;;;;;;;7.38;2.80;;;;;;;;;;4970579;28;20567;-78
2023/10/01 01:48:30;;;;;;;8.65;3.30;;;;;;;;;;4955891;28;20035;-78
2023/10/01 01:51:00;;;;;;;7.13;3.03;;;;;;;;;;4969043;28;20038;-78
2023/10/01 01:53:26;;;;;;;9.07;3.00;;;;;;;;;;4962284;28;20039;-78
2023/10/01 01:55:56;;;;;;;8.32;3.15;;;;;;;;;;4946661;28;20035;-77
2023/10/01 01:58:24;;;;;;;7.43;3.20;;;;;;;;;;4956502;28;20499;-78
2023/10/01 02:01:08;;;;;;;9.02;3.40;;;;;;;;;;4954200;28;20122;-77
2023/10/01 02:03:37;;;;;;;9.40;3.53;;;;;;;;;;4956414;28;20039;-77
2023/10/01 02:06:05;;;;;;;9.50;3.78;;;;;;;;;;4957175;28;20039;-78
2023/10/01 02:11:14;;;;;;;11.75;4.72;;;;;;;;;;4960885;28;20447;-77
2023/10/01 02:13:45;;;;;;;7.35;3.30;;;;;;;;;;4957645;28;20035;-78
2023/10/01 02:19:17;;;;;;;9.10;3.40;;;;;;;;;;4955904;28;20046;-78
2023/10/01 02:21:44;;;;;;;6.80;3.30;;;;;;;;;;4968220;28;20035;-77
2023/10/01 02:24:13;;;;;;;9.77;3.45;;;;;;;;;;4940691;28;20039;-78
2023/10/01 02:26:42;;;;;;;9.30;3.40;;;;;;;;;;4954618;28;20480;-78
2023/10/01 02:29:13;;;;;;;7.70;3.35;;;;;;;;;;4939446;28;20113;-78
2023/10/01 02:31:39;;;;;;;7.35;2.75;;;;;;;;;;4955271;28;20046;-77
2023/10/01 02:34:08;;;;;;;8.20;3.20;;;;;;;;;;4971446;28;20039;-78
2023/10/01 02:36:36;;;;;;;9.18;2.88;;;;;;;;;;4960861;28;20087;-78
2023/10/01 02:39:11;;;;;;;9.82;3.13;;;;;;;;;;4947113;28;20039;-78
2023/10/01 02:41:40;;;;;;;8.48;2.97;;;;;;;;;;4970543;28;20650;-78
2023/10/01 02:44:10;;;;;;;7.03;2.83;;;;;;;;;;4978189;28;20407;-78
2023/10/01 02:46:37;;;;;;;7.88;2.78;;;;;;;;;;4955336;28;20035;-78
2023/10/01 02:49:04;;;;;;;8.85;2.70;;;;;;;;;;4958452;28;20031;-78
2023/10/01 02:51:37;;;;;;;7.27;2.47;;;;;;;;;;4956732;28;20622;-78
2023/10/01 02:54:06;;;;;;;10.30;3.05;;;;;;;;;;4957171;28;20043;-78
2023/10/01 02:56:33;;;;;;;6.95;2.33;;;;;;;;;;4945803;28;20495;-78
2023/10/01 02:59:07;;;;;;;8.18;2.63;;;;;;;;;;4954836;28;20122;-78
2023/10/01 03:01:34;;;;;;;8.25;2.50;;;;;;;;;;4940216;28;20509;-78
2023/10/01 03:04:05;;;;;;;7.25;2.47;;;;;;;;;;4956114;28;20039;-77
2023/10/01 03:06:33;;;;;;;6.90;2.78;;;;;;;;;;4956210;28;20035;-77
2023/10/01 03:11:24;;;;;;;6.72;2.60;;;;;;;;;;4976295;28;20154;-77
2023/10/01 03:13:53;;;;;;;7.70;2.28;;;;;;;;;;4956006;28;20030;-77
2023/10/01 03:19:12;;;;;;;7.63;2.55;;;;;;;;;;4958482;28;20054;-78
2023/10/01 03:24:25;;;;;;;7.55;2.58;;;;;;;;;;4959083;28;20126;-78
2023/10/01 03:26:50;;;;;;;5.95;2.30;;;;;;;;;;4956734;28;20353;-77
2023/10/01 03:29:21;;;;;;;6.93;2.60;;;;;;;;;;4958729;28;20035;-78
2023/10/01 03:31:53;;;;;;;6.90;2.40;;;;;;;;;;4958300;28;20051;-78
2023/10/01 03:34:28;;;;;;;7.53;2.65;;;;;;;;;;4959122;28;20566;-78
2023/10/01 03:37:00;;;;;;;7.60;2.40;;;;;;;;;;4942896;28;20181;-78
2023/10/01 03:39:26;;;;;;;9.10;2.60;;;;;;;;;;4965632;28;20039;-78
2023/10/01 03:42:10;;;;;;;7.03;2.63;;;;;;;;;;4958334;28;20067;-78
2023/10/01 03:47:27;;;;;;;7.63;2.70;;;;;;;;;;4913415;28;20058;-78
2023/10/01 03:49:54;;;;;;;6.75;2.80;;;;;;;;;;4981232;28;20035;-78
2023/10/01 03:52:29;;;;;;;8.63;2.50;;;;;;;;;;4959003;28;20054;-78
2023/10/01 03:57:27;;;;;;;9.43;2.78;;;;;;;;;;4949478;28;20561;-78
2023/10/01 03:59:52;;;;;;;7.60;2.42;;;;;;;;;;4965532;28;20043;-77
2023/10/01 04:02:28;;;;;;;5.35;2.42;;;;;;;;;;4965010;28;20037;-78
2023/10/01 04:04:57;;;;;;;7.22;2.70;;;;;;;;;;4948958;28;20073;-78
2023/10/01 04:07:40;;;;;;;6.68;2.67;;;;;;;;;;4957863;28;20035;-78
2023/10/01 04:12:58;;;;;;;6.75;2.35;;;;;;;;;;4971303;28;20482;-77
2023/10/01 04:15:29;;;;;;;8.65;2.50;;;;;;;;;;4942021;28;21043;-78
2023/10/01 04:20:47;;;;;;;6.67;2.80;;;;;;;;;;4973972;28;20041;-78
2023/10/01 04:23:21;;;;;;;9.82;3.55;;;;;;;;;;4950266;28;20082;-78
2023/10/01 04:25:47;;;;;;;7.72;2.78;;;;;;;;;;4957739;28;20066;-78
2023/10/01 04:28:13;;;;;;;6.35;2.53;;;;;;;;;;4942354;28;20031;-78
2023/10/01 04:30:44;;;;;;;7.00;2.95;;;;;;;;;;4962392;28;20041;-78
2023/10/01 04:33:23;;;;;;;8.52;2.80;;;;;;;;;;4956682;28;20560;-78
2023/10/01 04:36:01;;;;;;;7.75;2.75;;;;;;;;;;4962437;28;20089;-78
2023/10/01 04:38:29;;;;;;;7.70;2.53;;;;;;;;;;4964187;28;20042;-78
2023/10/01 04:40:57;;;;;;;;;;;;;;;;;;4964031;28;20456;-78
2023/10/01 04:43:26;;;;;;;10.27;2.97;;;;;;;;;;4977357;28;19917;-78
2023/10/01 04:45:52;;;;;;;7.13;2.90;;;;;;;;;;4972521;28;20055;-78
2023/10/01 04:48:28;;;;;;;6.85;2.70;;;;;;;;;;4959441;28;20042;-79
2023/10/01 04:50:54;;;;;;;7.18;2.80;;;;;;;;;;4942591;28;20066;-78
2023/10/01 04:53:23;;;;;;;5.68;2.63;;;;;;;;;;4957921;28;21010;-78
2023/10/01 04:56:05;;;;;;;7.85;2.55;;;;;;;;;;4958129;28;20481;-78
2023/10/01 04:58:37;;;;;;;7.10;2.47;;;;;;;;;;4958037;28;20565;-79
2023/10/01 05:01:05;;;;;;;8.90;3.03;;;;;;;;;;4957515;28;20027;-79
2023/10/01 05:03:40;;;;;;;6.25;2.97;;;;;;;;;;4958476;28;20034;-79
2023/10/01 05:06:19;;;;;;;9.23;2.95;;;;;;;;;;4958951;28;20050;-79
2023/10/01 05:08:47;;;;;;;9.00;2.85;;;;;;;;;;4948775;28;20035;-78
2023/10/01 05:11:13;;;;;;;8.57;3.20;;;;;;;;;;4962689;28;20130;-78
2023/10/01 05:13:43;;;;;;;7.05;2.60;;;;;;;;;;4956928;28;20043;-77
2023/10/01 05:16:13;;;;;;;6.18;2.72;;;;;;;;;;4946553;28;20040;-78
2023/10/01 05:18:39;;;;;;;7.82;2.75;;;;;;;;;;4957041;28;20122;-78
2023/10/01 05:21:12;;;;;;;9.52;3.20;;;;;;;;;;4940228;28;20483;-79
2023/10/01 05:23:39;;;;;;;9.00;2.63;;;;;;;;;;4972200;28;20035;-79
2023/10/01 05:26:06;;;;;;;9.13;2.72;;;;;;;;;;4956256;28;20483;-79
2023/10/01 05:28:31;;;;;;;6.25;2.40;;;;;;;;;;4956960;28;20027;-79
2023/10/01 05:31:08;;;;;;;7.72;2.85;;;;;;;;;;4940791;28;20047;-79
2023/10/01 05:33:34;;;;;;;7.22;2.50;;;;;;;;;;4957090;28;20034;-78
2023/10/01 05:36:04;;;;;;;8.40;2.60;;;;;;;;;;4956345;28;20126;-79
2023/10/01 05:38:36;;;;;;;9.82;2.97;;;;;;;;;;4956876;28;20698;-78
2023/10/01 05:41:03;;;;;;;8.98;2.70;;;;;;;;;;4953799;28;20062;-79
2023/10/01 05:43:37;;;;;;;7.25;2.80;;;;;;;;;;4956569;28;20529;-78
2023/10/01 05:46:08;;;;;;;8.98;2.85;;;;;;;;;;4946979;28;20562;-78
2023/10/01 05:48:43;;;;;;;9.00;3.00;;;;;;;;;;4958015;28;20480;-79
2023/10/01 05:51:11;;;;;;;11.68;3.25;;;;;;;;;;4973149;28;20083;-78
2023/10/01 05:53:37;;;;;;;;;;;;;;;;;;4957717;28;20035;-79
2023/10/01 05:56:07;;;;;;;8.18;2.80;;;;;;;;;;4957039;28;20001;-79
2023/10/01 05:58:33;;;;;;;5.85;2.67;;;;;;;;;;4978982;28;20046;-79
2023/10/01 06:01:05;;;;;;;8.77;2.90;;;;;;;;;;4971570;28;20106;-79
2023/10/01 06:03:31;;;;;;;6.53;2.88;;;;;;;;;;4971965;28;20513;-79
2023/10/01 06:05:59;;;;;;;7.00;2.80;;;;;;;;;;4954930;28;21636;-79
2023/10/01 06:08:25;;;;;;;6.25;2.83;;;;;;;;;;4947913;28;20053;-79
2023/10/01 06:11:13;;;;;;;8.60;2.80;;;;;;;;;;4970459;28;20050;-79
2023/10/01 06:13:39;;;;;;;8.55;2.80;;;;;;;;;;4963001;28;20053;-78
2023/10/01 06:16:11;;;;;;;10.18;3.08;;;;;;;;;;4955657;28;20031;-79
2023/10/01 06:18:50;;;;;;;5.88;2.75;;;;;;;;;;4956010;28;20031;-78
2023/10/01 06:21:18;;;;;;;7.07;2.95;;;;;;;;;;4961584;28;20043;-78
2023/10/01 06:23:50;;;;;;;9.25;3.35;;;;;;;;;;4958566;28;20030;-79
2023/10/01 06:26:33;;;;;;;9.93;3.03;;;;;;;;;;4943287;28;20775;-79
2023/10/01 06:29:01;;;;;;;10.43;3.72;;;;;;;;;;4962158;28;20098;-78
2023/10/01 06:31:27;;;;;;;9.93;2.85;;;;;;;;;;4955928;28;20443;-77
2023/10/01 06:33:53;;;;;;;7.70;2.80;;;;;;;;;;4939700;28;20109;-77
2023/10/01 06:36:21;;;;;;;8.45;2.88;;;;;;;;;;4945433;28;20027;-78
2023/10/01 06:38:48;;;;;;;7.13;2.90;;;;;;;;;;4946935;28;20087;-78
2023/10/01 06:41:19;;;;;;;7.20;2.83;;;;;;;;;;4961791;28;20042;-78
2023/10/01 06:43:49;;;;;;;9.00;2.70;;;;;;;;;;4946289;28;20321;-78
2023/10/01 06:46:27;;;;;;;6.80;2.92;;;;;;;;;;4962438;28;20042;-78
2023/10/01 06:48:54;;;;;;;6.00;2.50;;;;;;;;;;4941348;28;20035;-79
2023/10/01 06:51:21;;;;;;;5.20;2.47;;;;;;;;;;4956071;28;20130;-79
2023/10/01 06:53:59;;;;;;;8.13;2.85;;;;;;;;;;4959612;28;20043;-79
2023/10/01 06:56:26;;;;;;;8.95;2.67;;;;;;;;;;4958774;28;20055;-79
2023/10/01 07:01:34;;;;;;;5.35;2.30;;;;;;;;;;4972123;28;19953;-79
2023/10/01 07:04:05;;;;;;;8.00;3.00;;;;;;;;;;4961616;28;20043;-78
2023/10/01 07:06:31;;;;;;;7.22;2.80;;;;;;;;;;4960019;28;20387;-79
2023/10/01 07:08:56;;;;;;;8.50;3.03;;;;;;;;;;4976329;28;20045;-79
2023/10/01 07:11:23;;;;;;;5.85;2.42;;;;;;;;;;4948369;28;20077;-79
2023/10/01 07:13:52;;;;;;;9.07;2.90;;;;;;;;;;4978246;28;20403;-79
2023/10/01 07:16:35;;;;;;;6.53;2.65;;;;;;;;;;4960588;28;20039;-79
2023/10/01 07:19:00;;;;;;;6.93;2.38;;;;;;;;;;4975665;28;20090;-79
2023/10/01 07:21:26;;;;;;;7.60;2.90;;;;;;;;;;4958800;28;20074;-79
2023/10/01 07:23:53;;;;;;;6.80;2.50;;;;;;;;;;4960532;28;20047;-79
2023/10/01 07:26:22;;;;;;;6.95;2.13;;;;;;;;;;4942554;28;20035;-79
2023/10/01 07:28:55;;;;;;;5.85;2.50;;;;;;;;;;4959918;28;20043;-79
2023/10/01 07:31:24;;;;;;;7.45;2.50;;;;;;;;;;4959421;28;20046;-78
2023/10/01 07:33:53;;;;;;;5.25;2.10;;;;;;;;;;4974469;28;20767;-79
2023/10/01 07:36:20;;;;;;;7.10;2.40;;;;;;;;;;4974732;28;20035;-80
2023/10/01 07:38:56;;;;;;;7.40;2.22;;;;;;;;;;4976360;28;20030;-79
2023/10/01 07:41:27;;;;;;;6.55;2.47;;;;;;;;;;4950003;28;20702;-80
2023/10/01 07:43:55;;;;;;;6.80;2.38;;;;;;;;;;4959355;28;20031;-79
2023/10/01 07:46:20;;;;;;;5.57;2.70;;;;;;;;;;4958801;28;20035;-80
2023/10/01 07:48:51;;;;;;;7.32;2.50;;;;;;;;;;4962983;28;20054;-80
2023/10/01 07:51:23;;;;;;;9.07;2.30;;;;;;;;;;4957240;28;20411;-79
2023/10/01 07:53:52;;;;;;;6.88;2.30;;;;;;;;;;4945319;28;20574;-79
2023/10/01 07:56:21;;;;;;;7.88;2.58;;;;;;;;;;4980159;28;20039;-79
2023/10/01 07:58:48;;;;;;;6.45;2.35;;;;;;;;;;4958974;28;20039;-79
2023/10/01 08:04:06;;;;;;;6.47;2.33;;;;;;;;;;4960215;28;20390;-79
2023/10/01 08:06:41;;;;;;;7.18;2.30;;;;;;;;;;4957409;28;20474;-79
2023/10/01 08:09:11;;;;;;;6.70;2.40;;;;;;;;;;4958217;28;20748;-79
2023/10/01 08:11:58;;;;;;;9.98;2.70;;;;;;;;;;4947341;28;20051;-79
2023/10/01 08:14:36;;;;;;;7.13;2.30;;;;;;;;;;4962783;28;20499;-79
2023/10/01 08:17:07;;;;;;;7.90;2.47;;;;;;;;;;4948052;28;20039;-79
2023/10/01 08:19:44;;;;;;;5.45;2.47;;;;;;;;;;4942790;28;20027;-79
2023/10/01 08:22:22;;;;;;;9.25;3.33;;;;;;;;;;4947569;28;20482;-79
2023/10/01 08:24:49;;;;;;;7.45;2.47;;;;;;;;;;4963365;28;20038;-80
2023/10/01 08:27:29;;;;;;;5.80;2.38;;;;;;;;;;4962841;28;20543;-80
2023/10/01 08:32:49;;;;;;;7.65;2.55;;;;;;;;;;4958244;28;20089;-80
2023/10/01 08:35:22;;;;;;;8.30;2.88;;;;;;;;;;4957312;28;20372;-79
2023/10/01 08:37:49;;;;;;;5.63;2.50;;;;;;;;;;4948848;28;20046;-80
2023/10/01 08:40:17;;;;;;;7.40;2.70;;;;;;;;;;4939633;28;20039;-79
2023/10/01 08:42:45;;;;;;;;;;;;;;;;;;4959107;28;20972;-79
2023/10/01 08:45:12;;;;;;;6.55;2.10;;;;;;;;;;4957684;28;20358;-79
2023/10/01 08:47:38;;;;;;;6.78;2.95;;;;;;;;;;4962036;28;20048;-79
2023/10/01 08:53:17;;;;;;;7.97;2.58;;;;;;;;;;4974681;28;20053;-78
2023/10/01 09:00:52;;;;;;;7.70;2.40;;;;;;;;;;4972054;28;20082;-79
2023/10/01 09:03:29;;;;;;;7.60;2.38;;;;;;;;;;4953646;28;20514;-79
2023/10/01 09:06:08;;;;;;;8.00;2.40;;;;;;;;;;4962414;28;20426;-80
2023/10/01 09:08:43;;;;;;;5.95;2.38;;;;;;;;;;4949519;28;20509;-80
2023/10/01 09:11:16;;;;;;;9.60;2.50;;;;;;;;;;4956165;28;20601;-80
2023/10/01 09:13:54;;;;;;;6.28;2.45;;;;;;;;;;4942255;28;20495;-80
2023/10/01 09:16:30;;;;;;;6.63;2.13;;;;;;;;;;4941864;28;20114;-80
2023/10/01 09:19:03;;;;;;;5.18;2.10;;;;;;;;;;4956582;28;20464;-80
2023/10/01 09:21:41;;;;;;;5.68;2.42;;;;;;;;;;4957604;28;20066;-80
2023/10/01 09:27:18;;;;;;;8.98;2.70;;;;;;;;;;4948858;28;19924;-80
2023/10/01 09:29:44;;;;;;;7.22;2.50;;;;;;;;;;4956731;28;20121;-81
2023/10/01 09:32:19;;;;;;;5.45;2.25;;;;;;;;;;4956567;28;20086;-80
2023/10/01 09:34:53;;;;;;;9.05;2.60;;;;;;;;;;4943185;28;20039;-81
2023/10/01 09:37:35;;;;;;;7.07;2.70;;;;;;;;;;4938813;28;20158;-79
2023/10/01 09:40:32;;;;;;;8.50;2.60;;;;;;;;;;4943071;28;20142;-78
2023/10/01 09:42:57;;;;;;;8.30;2.88;;;;;;;;;;4957013;28;20049;-78
2023/10/01 09:45:27;;;;;;;6.90;2.75;;;;;;;;;;4956176;28;20407;-79
2023/10/01 09:48:04;;;;;;;5.28;2.30;;;;;;;;;;4956971;28;20081;-78
2023/10/01 09:50:41;;;;;;;9.77;3.00;;;;;;;;;;4956143;28;20054;-79
2023/10/01 09:53:14;;;;;;;7.80;2.88;;;;;;;;;;4941027;28;20050;-79
2023/10/01 09:56:05;;;;;;;7.25;3.00;;;;;;;;;;4939520;28;20517;-79
2023/10/01 09:58:31;;;;;;;6.75;2.50;;;;;;;;;;4951877;28;20034;-79
2023/10/01 10:01:01;;;;;;;7.40;2.50;;;;;;;;;;4971881;28;20520;-78
2023/10/01 10:03:36;;;;;;;6.55;2.65;;;;;;;;;;4941848;28;20031;-78
2023/10/01 10:06:06;;;;;;;7.40;2.60;;;;;;;;;;4957315;28;20034;-79
2023/10/01 10:08:34;;;;;;;9.32;2.47;;;;;;;;;;4956771;28;20035;-79
2023/10/01 10:11:02;;;;;;;6.32;2.53;;;;;;;;;;4960380;28;20160;-80
2023/10/01 10:13:36;;;;;;;;;;;;;;;;;;4941168;28;20072;-79
2023/10/01 10:16:28;;;;;;;6.65;2.40;;;;;;;;;;4958209;28;19914;-79
2023/10/01 10:19:10;;;;;;;6.53;2.40;;;;;;;;;;4956667;28;20390;-80
2023/10/01 10:24:46;;;;;;;7.13;2.25;;;;;;;;;;4959348;28;20031;-81
2023/10/01 10:27:17;;;;;;;7.15;2.22;;;;;;;;;;4961571;28;20126;-81
2023/10/01 10:29:57;;;;;;;6.90;2.47;;;;;;;;;;4958265;28;20549;-81
2023/10/01 10:32:30;;;;;;;7.55;2.20;;;;;;;;;;4958408;28;20085;-81
2023/10/01 10:35:04;;;;;;;6.97;2.50;;;;;;;;;;4958481;28;20479;-80
2023/10/01 10:37:43;;;;;;;6.40;2.70;;;;;;;;;;4957274;28;20055;-81
2023/10/01 10:42:47;;;;;;;6.68;2.28;;;;;;;;;;4958245;28;20031;-81
2023/10/01 10:45:42;;;;;;;7.40;2.53;;;;;;;;;;4973193;28;20034;-81
2023/10/01 10:48:09;;;;;;;7.75;2.90;;;;;;;;;;4962220;28;20388;-80
2023/10/01 10:50:44;;;;;;;7.65;2.78;;;;;;;;;;4956530;28;20495;-81
2023/10/01 10:53:37;;;;;;;9.70;2.85;;;;;;;;;;4972234;28;20039;-80
2023/10/01 10:56:14;;;;;;;6.18;2.35;;;;;;;;;;4953917;28;20415;-80
2023/10/01 10:59:01;;;;;;;10.38;3.03;;;;;;;;;;4946342;28;20517;-78
2023/10/01 11:01:56;;;;;;;6.60;2.92;;;;;;;;;;4960188;28;20027;-79
2023/10/01 11:04:16;;;;;;;7.28;2.80;;;;;;;;;;4960672;28;20043;-80
2023/10/01 11:06:42;;;;;;;6.57;2.85;;;;;;;;;;4943980;28;20066;-80
2023/10/01 11:09:25;;;;;;;10.38;3.50;;;;;;;;;;4970335;28;20530;-79
2023/10/01 11:12:01;;;;;;;7.10;2.72;;;;;;;;;;4961762;28;20043;-80
2023/10/01 11:14:30;;;;;;;7.53;3.38;;;;;;;;;;4969357;28;20034;-81
2023/10/01 11:16:56;;;;;;;11.60;3.13;;;;;;;;;;4958709;28;20130;-80
2023/10/01 11:19:25;;;;;;;7.05;3.10;;;;;;;;;;4971702;28;20546;-80
2023/10/01 11:21:56;;;;;;;6.88;3.00;;;;;;;;;;4944062;28;20046;-81
2023/10/01 11:24:33;;;;;;;8.05;2.70;;;;;;;;;;4964237;28;20534;-81
2023/10/01 11:27:24;;;;;;;6.97;2.95;;;;;;;;;;4954872;28;20039;-81
2023/10/01 11:29:59;;;;;;;12.43;3.45;;;;;;;;;;4974300;28;20042;-80
2023/10/01 11:35:32;;;;;;;7.78;2.83;;;;;;;;;;4959856;28;20423;-81
2023/10/01 11:38:20;;;;;;;8.32;3.00;;;;;;;;;;4952893;28;20039;-81
2023/10/01 11:43:38;;;;;;;8.88;2.80;;;;;;;;;;4955214;28;20649;-79
2023/10/01 11:46:23;;;;;;;7.60;2.75;;;;;;;;;;4965365;28;20532;-80
2023/10/01 11:48:59;;;;;;;7.70;3.03;;;;;;;;;;4964851;28;20041;-80
2023/10/01 11:51:45;;;;;;;7.57;2.70;;;;;;;;;;4957761;28;20461;-81
2023/10/01 11:54:12;;;;;;;6.47;2.55;;;;;;;;;;4963465;28;20569;-81
2023/10/01 11:56:41;;;;;;;;;;;;;;;;;;4961779;28;20055;-81
2023/10/01 11:59:09;;;;;;;8.25;2.90;;;;;;;;;;4949185;28;20377;-80
2023/10/01 12:01:39;;;;;;;6.53;3.00;;;;;;;;;;4966484;28;20101;-80
2023/10/01 12:04:08;;;;;;;10.43;2.85;;;;;;;;;;4966117;28;20537;-81
2023/10/01 12:06:34;;;;;;;8.35;3.25;;;;;;;;;;4952689;28;20031;-81
2023/10/01 12:09:05;;;;;;;9.07;3.33;;;;;;;;;;4942749;28;20066;-81
2023/10/01 12:11:31;;;;;;;7.30;3.05;;;;;;;;;;4949733;28;20510;-81
2023/10/01 12:14:06;;;;;;;8.07;3.20;;;;;;;;;;4958542;28;20554;-81
2023/10/01 12:16:33;;;;;;;7.53;3.22;;;;;;;;;;4957620;28;20117;-81
2023/10/01 12:19:22;;;;;;;6.95;3.17;;;;;;;;;;4944060;28;20613;-81
2023/10/01 12:22:05;;;;;;;6.93;2.85;;;;;;;;;;4969695;28;20120;-81
2023/10/01 12:24:39;;;;;;;7.63;2.80;;;;;;;;;;4959060;28;20035;-81
2023/10/01 12:27:10;;;;;;;6.68;2.90;;;;;;;;;;4960189;28;20050;-80
2023/10/01 12:29:48;;;;;;;7.20;2.75;;;;;;;;;;4974212;28;20031;-81
2023/10/01 12:32:14;;;;;;;6.40;2.78;;;;;;;;;;4950065;28;20038;-80
2023/10/01 12:34:42;;;;;;;7.28;3.20;;;;;;;;;;4958019;28;20043;-79
2023/10/01 12:37:35;;;;;;;6.82;2.60;;;;;;;;;;4962493;28;20066;-79
2023/10/01 12:42:38;;;;;;;7.13;2.60;;;;;;;;;;4957311;28;20069;-79
2023/10/01 12:45:14;;;;;;;6.18;2.25;;;;;;;;;;4957672;28;20070;-78
2023/10/01 12:47:50;;;;;;;7.85;2.63;;;;;;;;;;4956659;28;20047;-78
2023/10/01 12:50:26;;;;;;;8.05;2.70;;;;;;;;;;4956387;28;20503;-79
2023/10/01 12:53:47;;;;;;;6.55;2.85;;;;;;;;;;4955895;28;20057;-82
2023/10/01 12:55:51;;;;;;;8.98;3.10;;;;;;;;;;4946563;28;20042;-80
2023/10/01 12:58:29;;;;;;;8.00;3.17;;;;;;;;;;4956893;28;20035;-80
2023/10/01 13:00:56;;;;;;;6.13;2.55;;;;;;;;;;4953857;28;20125;-80
2023/10/01 13:03:23;;;;;;;7.22;2.85;;;;;;;;;;4963171;28;20483;-80
2023/10/01 13:05:51;;;;;;;;;;;;;;;;;;4963552;28;20039;-80
2023/10/01 13:08:29;;;;;;;4.82;2.00;;;;;;;;;;4956488;28;19918;-80
2023/10/01 13:10:55;;;;;;;6.78;2.10;;;;;;;;;;4942368;28;20097;-80
2023/10/01 13:13:29;;;;;;;7.15;2.33;;;;;;;;;;4945894;28;20069;-80
2023/10/01 13:15:58;;;;;;;6.50;2.40;;;;;;;;;;4955531;28;20073;-78
2023/10/01 13:18:28;;;;;;;6.40;2.30;;;;;;;;;;4957143;28;20483;-78
2023/10/01 13:23:24;;;;;;;5.78;2.15;;;;;;;;;;4956513;28;20145;-78
2023/10/01 13:26:05;;;;;;;5.80;1.98;;;;;;;;;;4936087;28;20074;-79
2023/10/01 13:28:46;;;;;;;6.68;2.13;;;;;;;;;;4957404;28;20544;-78
2023/10/01 13:34:11;;;;;;;6.03;2.03;;;;;;;;;;4954132;28;20046;-79
2023/10/01 14:09:55;;;;;;;4.60;1.70;;;;;;;;;;4879118;29;20116;-77
2023/10/01 14:15:22;;;;;;;5.32;2.05;;;;;;;;;;4917301;29;20514;-77
2023/10/01 14:17:55;;;;;;;6.55;2.30;;;;;;;;;;4918982;29;20488;-78
2023/10/01 14:20:37;;;;;;;5.88;2.33;;;;;;;;;;4901357;29;20040;-77
2023/10/01 14:23:04;;;;;;;7.10;2.65;;;;;;;;;;4900178;29;20175;-78
2023/10/01 14:25:30;;;;;;;6.40;2.13;;;;;;;;;;4906056;29;20543;-79
2023/10/01 14:27:59;;;;;;;8.30;2.50;;;;;;;;;;4901897;29;20138;-78
2023/10/01 14:30:24;;;;;;;6.32;2.60;;;;;;;;;;4918480;29;20047;-78
2023/10/01 14:32:58;;;;;;;5.22;2.35;;;;;;;;;;4916150;29;20052;-77
2023/10/01 14:35:37;;;;;;;6.82;2.40;;;;;;;;;;4913131;29;20035;-78
2023/10/01 14:38:05;;;;;;;6.32;2.60;;;;;;;;;;4933509;28;20053;-78
2023/10/01 14:40:31;;;;;;;6.57;2.20;;;;;;;;;;4955930;28;20042;-78
2023/10/01 14:43:00;;;;;;;9.95;2.53;;;;;;;;;;4955567;28;20089;-77
2023/10/01 14:45:33;;;;;;;6.32;2.40;;;;;;;;;;4956174;28;20035;-79
2023/10/01 14:48:07;;;;;;;7.43;2.67;;;;;;;;;;4968196;28;20137;-78
2023/10/01 14:50:40;;;;;;;5.00;2.22;;;;;;;;;;4960758;28;20035;-79
2023/10/01 14:53:13;;;;;;;8.05;2.72;;;;;;;;;;4954891;28;20679;-78
2023/10/01 14:55:42;;;;;;;6.88;2.65;;;;;;;;;;4946498;28;20639;-78
2023/10/01 14:58:14;;;;;;;6.88;2.60;;;;;;;;;;4956151;28;20214;-78
2023/10/01 15:00:49;;;;;;;8.27;2.90;;;;;;;;;;4961163;28;20035;-79
2023/10/01 15:03:23;;;;;;;7.43;2.83;;;;;;;;;;4955059;28;20061;-78
2023/10/01 15:05:49;;;;;;;7.18;2.50;;;;;;;;;;4940985;28;20391;-78
2023/10/01 15:08:15;;;;;;;6.43;2.60;;;;;;;;;;4955301;28;20043;-79
2023/10/01 15:10:49;;;;;;;5.50;2.33;;;;;;;;;;4954518;28;20050;-79
2023/10/01 15:13:16;;;;;;;6.18;2.47;;;;;;;;;;4969404;28;20380;-81
2023/10/01 15:15:42;;;;;;;7.97;2.92;;;;;;;;;;4959523;28;20062;-80
2023/10/01 15:18:19;;;;;;;7.30;2.58;;;;;;;;;;4951170;28;20537;-81
2023/10/01 15:20:51;;;;;;;7.85;3.00;;;;;;;;;;4959190;28;20027;-81
2023/10/01 15:23:18;;;;;;;7.85;2.70;;;;;;;;;;4951135;28;20391;-80
2023/10/01 15:25:44;;;;;;;6.80;2.65;;;;;;;;;;4975269;28;20035;-81
2023/10/01 15:28:09;;;;;;;7.65;2.58;;;;;;;;;;4949478;28;20518;-81
2023/10/01 15:30:38;;;;;;;9.50;2.75;;;;;;;;;;4949844;28;20035;-81
2023/10/01 15:33:15;;;;;;;5.88;2.42;;;;;;;;;;4967944;28;20054;-81
2023/10/01 15:35:48;;;;;;;6.45;2.33;;;;;;;;;;4954992;28;20640;-81
2023/10/01 15:38:33;;;;;;;7.22;2.78;;;;;;;;;;4959612;28;20034;-80
2023/10/01 15:40:59;;;;;;;5.38;2.25;;;;;;;;;;4941336;28;20031;-80
2023/10/01 15:43:24;;;;;;;6.05;2.55;;;;;;;;;;4942143;28;20086;-80
2023/10/01 15:45:50;;;;;;;7.57;2.60;;;;;;;;;;4973394;28;20050;-80
2023/10/01 15:48:17;;;;;;;9.38;2.85;;;;;;;;;;4958502;28;20034;-80
2023/10/01 15:50:46;;;;;;;;;;;;;;;;;;4959494;28;20085;-81
2023/10/01 15:53:21;;;;;;;5.80;2.70;;;;;;;;;;4958281;28;19921;-79
2023/10/01 15:55:56;;;;;;;5.88;2.58;;;;;;;;;;4948487;28;20035;-80
2023/10/01 15:58:25;;;;;;;8.30;2.88;;;;;;;;;;4951439;28;20513;-80
2023/10/01 16:00:59;;;;;;;6.68;2.70;;;;;;;;;;4957424;28;20039;-82
2023/10/01 16:03:31;;;;;;;8.23;3.17;;;;;;;;;;4966182;28;20035;-81
2023/10/01 16:06:08;;;;;;;7.13;3.00;;;;;;;;;;4958818;28;20650;-81
2023/10/01 16:08:35;;;;;;;;;;;;;;;;;;4959522;28;20587;-81
2023/10/01 16:11:05;;;;;;;7.57;3.08;;;;;;;;;;4973930;28;20298;-80
2023/10/01 16:13:34;;;;;;;6.45;2.63;;;;;;;;;;4960122;28;20414;-81
2023/10/01 16:16:03;;;;;;;8.15;3.22;;;;;;;;;;4963889;28;20046;-80
2023/10/01 16:18:30;;;;;;;8.13;3.00;;;;;;;;;;4957806;28;21050;-80
2023/10/01 16:21:02;;;;;;;9.75;3.78;;;;;;;;;;4964611;28;20035;-80
2023/10/01 16:23:31;;;;;;;6.75;2.67;;;;;;;;;;4974677;28;20585;-80
2023/10/01 16:25:57;;;;;;;6.05;3.10;;;;;;;;;;4956826;28;20487;-80
2023/10/01 16:28:26;;;;;;;7.22;2.78;;;;;;;;;;4958034;28;20045;-81
2023/10/01 16:31:02;;;;;;;9.05;3.38;;;;;;;;;;4956034;28;20086;-77
2023/10/01 16:33:31;;;;;;;7.28;2.95;;;;;;;;;;4956951;28;20035;-77
2023/10/01 16:36:01;;;;;;;6.90;3.03;;;;;;;;;;4963010;28;20053;-77
2023/10/01 16:38:28;;;;;;;5.43;3.05;;;;;;;;;;4958975;28;20035;-78
2023/10/01 16:40:54;;;;;;;6.25;2.53;;;;;;;;;;4957229;28;20043;-78
2023/10/01 16:43:24;;;;;;;7.63;2.88;;;;;;;;;;4959359;28;20063;-78
2023/10/01 16:45:50;;;;;;;9.68;3.00;;;;;;;;;;4962354;28;20051;-78
2023/10/01 16:48:24;;;;;;;8.63;3.20;;;;;;;;;;4957720;28;20041;-78
2023/10/01 16:50:56;;;;;;;6.97;2.83;;;;;;;;;;4962724;28;20034;-78